Site contains unofficial IBTrACS data. Visit the IBTrACS Website to access archived data.

1899 NOT_NAMED (1899344S10066)


IBTrACS version v04r00. Visit IBTrACS website for data access.
Please direct all questions to the IBTrACS Q and A forum

Storm track - Intensity - Wind Radii - Intensity Data - Source Data - All data

Summary Information

Storm ID 1899344S10066
Start Dec 10 00Z
Landfall Dec 19 09Z
End Dec 23 00Z
ATCF IDs
Track status Best track data.

Storm track plot

Map of storm track

Intensity plots

No Intensity information for this storm


Radial wind information

No radial wind information for this storm


Position and Intensity Table

BASIN ISO_TIME_________ NATURE LAT LON
degrees north degrees east
SI 1899-12-10 00:00:00 TS -10.00 66.30
SI 03:00:00 TS -10.05 66.01
SI 06:00:00 TS -10.10 65.70
SI 09:00:00 TS -10.16 65.37
SI 12:00:00 TS -10.20 65.00
SI 15:00:00 TS -10.20 64.60
SI 18:00:00 TS -10.20 64.20
SI 21:00:00 TS -10.24 63.84
SI 1899-12-11 00:00:00 TS -10.30 63.50
SI 03:00:00 TS -10.35 63.20
SI 06:00:00 TS -10.40 62.90
SI 09:00:00 TS -10.46 62.56
SI 12:00:00 TS -10.50 62.20
SI 15:00:00 TS -10.50 61.85
SI 18:00:00 TS -10.50 61.50
SI 21:00:00 TS -10.54 61.16
SI 1899-12-12 00:00:00 TS -10.60 60.80
SI 03:00:00 TS -10.65 60.40
SI 06:00:00 TS -10.70 60.00
SI 09:00:00 TS -10.75 59.65
SI 12:00:00 TS -10.80 59.30
SI 15:00:00 TS -10.85 58.91
SI 18:00:00 TS -10.90 58.50
SI 21:00:00 TS -10.95 58.09
SI 1899-12-13 00:00:00 TS -11.00 57.60
SI 03:00:00 TS -11.05 56.98
SI 06:00:00 TS -11.10 56.30
SI 09:00:00 TS -11.16 55.61
SI 12:00:00 TS -11.20 55.00
SI 15:00:00 TS -11.20 54.60
SI 18:00:00 TS -11.20 54.30
SI 21:00:00 TS -11.23 53.99
SI 1899-12-14 00:00:00 TS -11.30 53.60
SI 03:00:00 TS -11.39 52.99
SI 06:00:00 TS -11.50 52.30
SI 09:00:00 TS -11.60 51.69
SI 12:00:00 TS -11.70 51.10
SI 15:00:00 TS -11.81 50.51
SI 18:00:00 TS -11.90 49.90
SI 21:00:00 TS -11.96 49.23
SI 1899-12-15 00:00:00 TS -12.00 48.60
SI 03:00:00 TS -12.05 48.07
SI 06:00:00 TS -12.10 47.60
SI 09:00:00 TS -12.14 47.14
SI 12:00:00 TS -12.20 46.70
SI 15:00:00 TS -12.29 46.25
SI 18:00:00 TS -12.40 45.80
SI 21:00:00 TS -12.49 45.35
SI 1899-12-16 00:00:00 TS -12.60 44.90
SI 03:00:00 TS -12.74 44.44
SI 06:00:00 TS -12.90 44.00
SI 09:00:00 TS -13.03 43.59
SI 12:00:00 TS -13.20 43.20
SI 15:00:00 TS -13.43 42.79
SI 18:00:00 TS -13.70 42.40
SI 21:00:00 TS -13.98 42.03
SI 1899-12-17 00:00:00 TS -14.30 41.70
SI 03:00:00 TS -14.63 41.42
SI 06:00:00 TS -15.00 41.20
SI 09:00:00 TS -15.38 41.03
SI 12:00:00 TS -15.80 40.90
SI 15:00:00 TS -16.24 40.78
SI 18:00:00 TS -16.70 40.70
SI 21:00:00 TS -17.14 40.62
SI 1899-12-18 00:00:00 TS -17.60 40.60
SI 03:00:00 TS -18.10 40.66
SI 06:00:00 TS -18.60 40.80
SI 09:00:00 TS -19.07 40.98
SI 12:00:00 TS -19.50 41.20
SI 15:00:00 TS -19.87 41.44
SI 18:00:00 TS -20.20 41.70
SI 21:00:00 TS -20.50 41.93
SI 1899-12-19 00:00:00 TS -20.80 42.20
SI 03:00:00 TS -21.14 42.58
SI 06:00:00 TS -21.50 43.00
SI 09:00:00 TS -21.86 43.40
SI 12:00:00 TS -22.20 43.80
SI 15:00:00 TS -22.51 44.20
SI 18:00:00 TS -22.80 44.60
SI 21:00:00 TS -23.04 44.99
SI 1899-12-20 00:00:00 TS -23.30 45.40
SI 03:00:00 TS -23.64 45.84
SI 06:00:00 TS -24.00 46.30
SI 09:00:00 TS -24.31 46.80
SI 12:00:00 TS -24.60 47.30
SI 15:00:00 TS -24.90 47.75
SI 18:00:00 TS -25.20 48.20
SI 21:00:00 TS -25.50 48.69
SI 1899-12-21 00:00:00 TS -25.80 49.20
SI 03:00:00 TS -26.10 49.70
SI 06:00:00 TS -26.40 50.20
SI 09:00:00 TS -26.71 50.71
SI 12:00:00 TS -27.00 51.20
SI 15:00:00 TS -27.26 51.66
SI 18:00:00 TS -27.50 52.10
SI 21:00:00 TS -27.73 52.52
SI 1899-12-22 00:00:00 TS -28.00 53.00
SI 03:00:00 TS -28.33 53.63
SI 06:00:00 TS -28.70 54.30
SI 09:00:00 TS -29.10 54.88
SI 12:00:00 TS -29.50 55.50
SI 15:00:00 TS -29.87 56.27
SI 18:00:00 TS -30.20 57.10
SI 21:00:00 TS -30.51 57.91
SI 1899-12-23 00:00:00 TS -30.80 58.70

Source Information

Agency Information
USA
TOKYO
CMA
HKO
NEWDELHI
REUNION
BOM
NADI
WELLINGTON
DS824 s_hem.dat:105:NOT NAMED
TD9636
TD9635
NEUMANN
MLC

All available IBTrACS Data

SEASON BASIN SUBBASIN ISO_TIME_________ NATURE LAT LON DIST2LAND LANDFALL IFLAG USA SSHS DS824 LAT DS824 LON DS824 STAGE STORM SPEED STORM DIR
Year degrees north degrees east km km 1 degrees north degrees east kts degrees
1900 SI MM 1899-12-10 00:00:00 TS -10.00 66.30 1459 1438 _________O____ -1 -10.00 66.30 TC 6 261
1900 SI MM 03:00:00 TS -10.05 66.01 1438 1410 _________P____ -1 -10.05 66.01 TC 6 260
1900 SI MM 06:00:00 TS -10.10 65.70 1410 1381 _________O____ -1 -10.10 65.70 TC 6 260
1900 SI MM 09:00:00 TS -10.16 65.37 1381 1356 _________P____ -1 -10.16 65.37 TC 7 262
1900 SI MM 12:00:00 TS -10.20 65.00 1356 1332 _________O____ -1 -10.20 65.00 TC 8 267
1900 SI MM 15:00:00 TS -10.20 64.60 1332 1309 _________P____ -1 -10.20 64.60 TC 8 270
1900 SI MM 18:00:00 TS -10.20 64.20 1309 1292 _________O____ -1 -10.20 64.20 TC 8 267
1900 SI MM 21:00:00 TS -10.24 63.84 1286 1260 _________P____ -1 -10.24 63.84 TC 7 262
1900 SI MM 1899-12-11 00:00:00 TS -10.30 63.50 1260 1245 _________O____ -1 -10.30 63.50 TC 6 260
1900 SI MM 03:00:00 TS -10.35 63.20 1245 1220 _________P____ -1 -10.35 63.20 TC 6 260
1900 SI MM 06:00:00 TS -10.40 62.90 1220 1195 _________O____ -1 -10.40 62.90 TC 6 260
1900 SI MM 09:00:00 TS -10.46 62.56 1195 1177 _________P____ -1 -10.46 62.56 TC 7 262
1900 SI MM 12:00:00 TS -10.50 62.20 1177 1164 _________O____ -1 -10.50 62.20 TC 7 267
1900 SI MM 15:00:00 TS -10.50 61.85 1160 1149 _________P____ -1 -10.50 61.85 TC 7 270
1900 SI MM 18:00:00 TS -10.50 61.50 1149 1138 _________O____ -1 -10.50 61.50 TC 7 266
1900 SI MM 21:00:00 TS -10.54 61.16 1138 1113 _________P____ -1 -10.54 61.16 TC 7 262
1900 SI MM 1899-12-12 00:00:00 TS -10.60 60.80 1113 1101 _________O____ -1 -10.60 60.80 TC 8 262
1900 SI MM 03:00:00 TS -10.65 60.40 1101 1080 _________P____ -1 -10.65 60.40 TC 8 263
1900 SI MM 06:00:00 TS -10.70 60.00 1080 1073 _________O____ -1 -10.70 60.00 TC 7 262
1900 SI MM 09:00:00 TS -10.75 59.65 1071 1052 _________P____ -1 -10.75 59.65 TC 7 262
1900 SI MM 12:00:00 TS -10.80 59.30 1052 1010 _________O____ -1 -10.80 59.30 TC 7 262
1900 SI MM 15:00:00 TS -10.85 58.91 1010 965 _________P____ -1 -10.85 58.91 TC 8 263
1900 SI MM 18:00:00 TS -10.90 58.50 965 923 _________O____ -1 -10.90 58.50 TC 8 263
1900 SI MM 21:00:00 TS -10.95 58.09 923 867 _________P____ -1 -10.95 58.09 TC 9 264
1900 SI MM 1899-12-13 00:00:00 TS -11.00 57.60 867 804 _________O____ -1 -11.00 57.60 TC 11 265
1900 SI MM 03:00:00 TS -11.05 56.98 801 728 _________P____ -1 -11.05 56.98 TC 13 266
1900 SI MM 06:00:00 TS -11.10 56.30 728 652 _________O____ -1 -11.10 56.30 TC 14 265
1900 SI MM 09:00:00 TS -11.16 55.61 652 590 _________P____ -1 -11.16 55.61 TC 13 266
1900 SI MM 12:00:00 TS -11.20 55.00 590 549 _________O____ -1 -11.20 55.00 TC 10 268
1900 SI MM 15:00:00 TS -11.20 54.60 549 519 _________P____ -1 -11.20 54.60 TC 7 270
1900 SI MM 18:00:00 TS -11.20 54.30 519 489 _________O____ -1 -11.20 54.30 TC 6 267
1900 SI MM 21:00:00 TS -11.23 53.99 489 445 _________P____ -1 -11.23 53.99 TC 7 262
1900 SI MM 1899-12-14 00:00:00 TS -11.30 53.60 445 381 _________O____ -1 -11.30 53.60 TC 10 261
1900 SI MM 03:00:00 TS -11.39 52.99 381 310 _________P____ -1 -11.39 52.99 TC 13 261
1900 SI MM 06:00:00 TS -11.50 52.30 310 250 _________O____ -1 -11.50 52.30 TC 13 261
1900 SI MM 09:00:00 TS -11.60 51.69 250 193 _________P____ -1 -11.60 51.69 TC 12 260
1900 SI MM 12:00:00 TS -11.70 51.10 193 127 _________O____ -1 -11.70 51.10 TC 12 260
1900 SI MM 15:00:00 TS -11.81 50.51 127 63 _________P____ -1 -11.81 50.51 TC 12 260
1900 SI MM 18:00:00 TS -11.90 49.90 63 11 _________O____ -1 -11.90 49.90 TC 13 263
1900 SI MM 21:00:00 TS -11.96 49.23 11 11 _________P____ -1 -11.96 49.23 TC 13 266
1900 SI MM 1899-12-15 00:00:00 TS -12.00 48.60 54 54 _________O____ -1 -12.00 48.60 TC 11 265
1900 SI MM 03:00:00 TS -12.05 48.07 94 94 _________P____ -1 -12.05 48.07 TC 10 264
1900 SI MM 06:00:00 TS -12.10 47.60 137 137 _________O____ -1 -12.10 47.60 TC 9 264
1900 SI MM 09:00:00 TS -12.14 47.14 190 184 _________P____ -1 -12.14 47.14 TC 9 264
1900 SI MM 12:00:00 TS -12.20 46.70 210 210 _________O____ -1 -12.20 46.70 TC 9 260
1900 SI MM 15:00:00 TS -12.29 46.25 233 233 _________P____ -1 -12.29 46.25 TC 9 257
1900 SI MM 18:00:00 TS -12.40 45.80 270 270 _________O____ -1 -12.40 45.80 TC 9 257
1900 SI MM 21:00:00 TS -12.49 45.35 312 312 _________P____ -1 -12.49 45.35 TC 9 257
1900 SI MM 1899-12-16 00:00:00 TS -12.60 44.90 347 347 _________O____ -1 -12.60 44.90 TC 9 254
1900 SI MM 03:00:00 TS -12.74 44.44 377 363 _________P____ -1 -12.74 44.44 TC 9 251
1900 SI MM 06:00:00 TS -12.90 44.00 366 326 _________O____ -1 -12.90 44.00 TC 9 251
1900 SI MM 09:00:00 TS -13.03 43.59 326 282 _________P____ -1 -13.03 43.59 TC 8 249
1900 SI MM 12:00:00 TS -13.20 43.20 282 238 _________O____ -1 -13.20 43.20 TC 9 243
1900 SI MM 15:00:00 TS -13.43 42.79 238 194 _________P____ -1 -13.43 42.79 TC 9 237
1900 SI MM 18:00:00 TS -13.70 42.40 194 140 _________O____ -1 -13.70 42.40 TC 9 233
1900 SI MM 21:00:00 TS -13.98 42.03 140 99 _________P____ -1 -13.98 42.03 TC 9 229
1900 SI MM 1899-12-17 00:00:00 TS -14.30 41.70 99 64 _________O____ -1 -14.30 41.70 TC 9 222
1900 SI MM 03:00:00 TS -14.63 41.42 64 42 _________P____ -1 -14.63 41.42 TC 9 215
1900 SI MM 06:00:00 TS -15.00 41.20 42 34 _________O____ -1 -15.00 41.20 TC 8 207
1900 SI MM 09:00:00 TS -15.38 41.03 42 39 _________P____ -1 -15.38 41.03 TC 9 200
1900 SI MM 12:00:00 TS -15.80 40.90 54 54 _________O____ -1 -15.80 40.90 TC 9 195
1900 SI MM 15:00:00 TS -16.24 40.78 69 69 _________P____ -1 -16.24 40.78 TC 9 192
1900 SI MM 18:00:00 TS -16.70 40.70 93 93 _________O____ -1 -16.70 40.70 TC 9 190
1900 SI MM 21:00:00 TS -17.14 40.62 108 108 _________P____ -1 -17.14 40.62 TC 9 186
1900 SI MM 1899-12-18 00:00:00 TS -17.60 40.60 149 149 _________O____ -1 -17.60 40.60 TC 10 177
1900 SI MM 03:00:00 TS -18.10 40.66 202 202 _________P____ -1 -18.10 40.66 TC 10 169
1900 SI MM 06:00:00 TS -18.60 40.80 253 253 _________O____ -1 -18.60 40.80 TC 10 163
1900 SI MM 09:00:00 TS -19.07 40.98 309 309 _________P____ -1 -19.07 40.98 TC 10 157
1900 SI MM 12:00:00 TS -19.50 41.20 317 275 _________O____ -1 -19.50 41.20 TC 9 151
1900 SI MM 15:00:00 TS -19.87 41.44 275 230 _________P____ -1 -19.87 41.44 TC 8 146
1900 SI MM 18:00:00 TS -20.20 41.70 230 194 _________O____ -1 -20.20 41.70 TC 8 144
1900 SI MM 21:00:00 TS -20.50 41.93 194 150 _________P____ -1 -20.50 41.93 TC 8 142
1900 SI MM 1899-12-19 00:00:00 TS -20.80 42.20 150 99 _________O____ -1 -20.80 42.20 TC 9 137
1900 SI MM 03:00:00 TS -21.14 42.58 99 51 _________P____ -1 -21.14 42.58 TC 10 133
1900 SI MM 06:00:00 TS -21.50 43.00 51 0 _________O____ -1 -21.50 43.00 TC 11 133
1900 SI MM 09:00:00 TS -21.86 43.40 0 0 _________P____ -1 -21.86 43.40 TC 10 133
1900 SI MM 12:00:00 TS -22.20 43.80 0 0 _________O____ -1 -22.20 43.80 TC 10 132
1900 SI MM 15:00:00 TS -22.51 44.20 0 0 _________P____ -1 -22.51 44.20 TC 10 129
1900 SI MM 18:00:00 TS -22.80 44.60 0 0 _________O____ -1 -22.80 44.60 TC 9 126
1900 SI MM 21:00:00 TS -23.04 44.99 0 0 _________P____ -1 -23.04 44.99 TC 9 124
1900 SI MM 1899-12-20 00:00:00 TS -23.30 45.40 0 0 _________O____ -1 -23.30 45.40 TC 10 128
1900 SI MM 03:00:00 TS -23.64 45.84 0 0 _________P____ -1 -23.64 45.84 TC 11 130
1900 SI MM 06:00:00 TS -24.00 46.30 0 0 _________O____ -1 -24.00 46.30 TC 11 127
1900 SI MM 09:00:00 TS -24.31 46.80 0 0 _________P____ -1 -24.31 46.80 TC 11 123
1900 SI MM 12:00:00 TS -24.60 47.30 10 10 _________O____ -1 -24.60 47.30 TC 10 124
1900 SI MM 15:00:00 TS -24.90 47.75 64 64 _________P____ -1 -24.90 47.75 TC 10 126
1900 SI MM 18:00:00 TS -25.20 48.20 112 112 _________O____ -1 -25.20 48.20 TC 10 125
1900 SI MM 21:00:00 TS -25.50 48.69 170 170 _________P____ -1 -25.50 48.69 TC 11 124
1900 SI MM 1899-12-21 00:00:00 TS -25.80 49.20 228 228 _________O____ -1 -25.80 49.20 TC 11 123
1900 SI MM 03:00:00 TS -26.10 49.70 288 288 _________P____ -1 -26.10 49.70 TC 11 124
1900 SI MM 06:00:00 TS -26.40 50.20 347 347 _________O____ -1 -26.40 50.20 TC 11 124
1900 SI MM 09:00:00 TS -26.71 50.71 406 406 _________P____ -1 -26.71 50.71 TC 11 124
1900 SI MM 12:00:00 TS -27.00 51.20 466 466 _________O____ -1 -27.00 51.20 TC 10 123
1900 SI MM 15:00:00 TS -27.26 51.66 525 525 _________P____ -1 -27.26 51.66 TC 9 122
1900 SI MM 18:00:00 TS -27.50 52.10 571 571 _________O____ -1 -27.50 52.10 TC 9 122
1900 SI MM 21:00:00 TS -27.73 52.52 616 616 _________P____ -1 -27.73 52.52 TC 9 122
1900 SI MM 1899-12-22 00:00:00 TS -28.00 53.00 675 675 _________O____ -1 -28.00 53.00 TC 11 121
1900 SI MM 03:00:00 TS -28.33 53.63 743 743 _________P____ -1 -28.33 53.63 TC 13 121
1900 SI MM 06:00:00 TS -28.70 54.30 824 824 _________O____ -1 -28.70 54.30 TC 13 125
1900 SI MM 09:00:00 TS -29.10 54.88 863 863 _________P____ -1 -29.10 54.88 TC 13 127
1900 SI MM 12:00:00 TS -29.50 55.50 904 904 _________O____ -1 -29.50 55.50 TC 14 122
1900 SI MM 15:00:00 TS -29.87 56.27 952 952 _________P____ -1 -29.87 56.27 TC 16 117
1900 SI MM 18:00:00 TS -30.20 57.10 994 994 _________O____ -1 -30.20 57.10 TC 16 114
1900 SI MM 21:00:00 TS -30.51 57.91 1042 1042 _________P____ -1 -30.51 57.91 TC 15 114
1900 SI MM 1899-12-23 00:00:00 TS -30.80 58.70 1094 _________O____ -1 -30.80 58.70 TC 15 113